Time;durP1;ratioP1;P1;durP2;ratioP2;P2;SDS_P1;SDS_P2;PMS_P1;PMS_P2;Temp;Humidity;BMP_temperature;BMP_pressure;BME280_temperature;BME280_humidity;BME280_pressure;Samples;Min_cycle;Max_cycle;Signal;HPM_P1;HPM_P2
2021/03/14 00:01:17;;;;;;;2.40;0.80;;;22.70;49.20;;;;;;5034336;28;20593;-64
2021/03/14 00:03:43;;;;;;;1.50;0.90;;;22.70;49.20;;;;;;5034015;28;20221;-65
2021/03/14 00:06:09;;;;;;;2.83;1.20;;;22.70;49.20;;;;;;5034036;28;20924;-65
2021/03/14 00:08:34;;;;;;;1.40;0.80;;;22.70;49.20;;;;;;5032554;28;20293;-64
2021/03/14 00:11:05;;;;;;;1.13;0.97;;;22.70;49.20;;;;;;5033908;28;20178;-65
2021/03/14 00:13:34;;;;;;;1.60;0.83;;;22.60;49.10;;;;;;5033906;28;20213;-65
2021/03/14 00:16:01;;;;;;;1.30;0.90;;;22.70;49.20;;;;;;5033910;28;20894;-65
2021/03/14 00:18:33;;;;;;;1.50;1.20;;;22.60;49.20;;;;;;5032446;28;20434;-65
2021/03/14 00:20:59;;;;;;;1.93;0.80;;;22.60;49.20;;;;;;5032909;28;20406;-64
2021/03/14 00:23:26;;;;;;;1.50;1.13;;;22.60;49.80;;;;;;5033673;28;20418;-65
2021/03/14 00:25:53;;;;;;;1.13;0.70;;;22.60;49.20;;;;;;5033669;28;20761;-65
2021/03/14 00:28:18;;;;;;;1.50;0.90;;;22.60;49.20;;;;;;5033519;28;21054;-65
2021/03/14 00:30:45;;;;;;;1.10;0.80;;;22.60;49.20;;;;;;5032292;28;20415;-64
2021/03/14 00:33:11;;;;;;;1.20;0.90;;;22.60;49.20;;;;;;5032220;28;20271;-65
2021/03/14 00:35:37;;;;;;;1.80;1.03;;;22.60;49.20;;;;;;5033432;28;20501;-64
2021/03/14 00:38:03;;;;;;;1.70;1.00;;;22.60;49.20;;;;;;5033271;28;20278;-64
2021/03/14 00:40:29;;;;;;;1.93;1.00;;;22.60;49.20;;;;;;5033411;28;20182;-65
2021/03/14 00:42:57;;;;;;;1.47;0.83;;;22.60;49.20;;;;;;5033380;28;20526;-65
2021/03/14 00:45:22;;;;;;;1.67;0.90;;;22.60;49.20;;;;;;5033321;28;20985;-65
2021/03/14 00:47:48;;;;;;;1.13;1.00;;;22.60;49.20;;;;;;5033167;28;20552;-64
2021/03/14 00:50:14;;;;;;;1.23;0.87;;;22.60;49.30;;;;;;5033209;28;20191;-64
2021/03/14 00:52:40;;;;;;;0.97;0.80;;;22.50;49.20;;;;;;5033519;28;20182;-64
2021/03/14 00:55:06;;;;;;;2.33;1.13;;;22.50;49.20;;;;;;5033212;28;20410;-64
2021/03/14 00:57:32;;;;;;;1.50;0.93;;;22.50;49.20;;;;;;5033216;28;20183;-65
2021/03/14 00:59:57;;;;;;;1.10;0.87;;;22.50;49.20;;;;;;5033117;28;20437;-65
2021/03/14 01:02:23;;;;;;;1.43;0.80;;;22.60;49.30;;;;;;5033152;28;20287;-64
2021/03/14 01:04:48;;;;;;;1.27;0.87;;;22.50;49.20;;;;;;5032982;28;20192;-64
2021/03/14 01:07:14;;;;;;;1.80;0.80;;;22.50;49.20;;;;;;5031803;28;20214;-65
2021/03/14 01:09:40;;;;;;;1.80;0.97;;;22.50;49.20;;;;;;5033241;28;20595;-65
2021/03/14 01:12:07;;;;;;;1.80;0.90;;;22.50;49.20;;;;;;5032989;28;20254;-63
2021/03/14 01:14:33;;;;;;;2.37;0.90;;;22.50;49.40;;;;;;5032988;28;20175;-65
2021/03/14 01:16:59;;;;;;;1.10;0.80;;;22.50;49.20;;;;;;5033024;28;20410;-65
2021/03/14 01:19:24;;;;;;;2.40;0.80;;;22.50;49.20;;;;;;5033180;28;20434;-65
2021/03/14 01:21:50;;;;;;;1.53;0.87;;;22.50;49.20;;;;;;5032977;28;20172;-65
2021/03/14 01:24:16;;;;;;;1.10;0.90;;;22.50;49.80;;;;;;5033167;28;20635;-65
2021/03/14 01:26:41;;;;;;;1.03;0.80;;;22.50;49.20;;;;;;5033027;28;20670;-64
2021/03/14 01:29:07;;;;;;;1.03;0.70;;;22.50;49.20;;;;;;5032811;28;20191;-65
2021/03/14 01:31:33;;;;;;;2.13;1.00;;;22.50;49.30;;;;;;5033269;28;20545;-65
2021/03/14 01:33:58;;;;;;;1.33;0.80;;;22.50;49.30;;;;;;5036805;28;20637;-64
2021/03/14 01:36:24;;;;;;;1.23;0.90;;;22.50;49.30;;;;;;5036739;28;20199;-65
2021/03/14 01:38:49;;;;;;;1.10;0.90;;;22.50;49.30;;;;;;5019069;28;20196;-64
2021/03/14 01:41:15;;;;;;;1.47;0.90;;;22.40;49.20;;;;;;5036767;28;20179;-65
2021/03/14 01:43:41;;;;;;;1.10;0.80;;;22.40;49.20;;;;;;5035448;28;20627;-64
2021/03/14 01:46:09;;;;;;;1.07;0.80;;;22.40;49.20;;;;;;5036682;28;20567;-64
2021/03/14 01:48:36;;;;;;;1.37;0.90;;;22.40;49.20;;;;;;5036445;28;20838;-65
2021/03/14 01:51:03;;;;;;;0.90;0.70;;;22.40;49.20;;;;;;5035296;28;20422;-64
2021/03/14 01:53:29;;;;;;;1.40;0.80;;;22.50;49.30;;;;;;5036537;28;20574;-65
2021/03/14 01:55:56;;;;;;;2.03;0.90;;;22.40;49.20;;;;;;5036610;28;20410;-64
2021/03/14 01:58:23;;;;;;;1.70;0.77;;;22.40;49.20;;;;;;5036352;28;20438;-65
2021/03/14 02:00:51;;;;;;;2.10;0.93;;;22.50;49.30;;;;;;5036378;28;20410;-65
2021/03/14 02:03:18;;;;;;;1.10;0.70;;;22.40;49.20;;;;;;5036295;28;20491;-65
2021/03/14 02:05:43;;;;;;;1.23;0.80;;;22.50;49.30;;;;;;5036311;28;20916;-65
2021/03/14 02:08:09;;;;;;;1.00;0.80;;;22.40;49.30;;;;;;5036104;28;20552;-64
2021/03/14 02:10:36;;;;;;;1.30;0.90;;;22.40;49.30;;;;;;5035225;28;20171;-65
2021/03/14 02:13:07;;;;;;;1.93;0.80;;;22.40;49.30;;;;;;5036051;28;20184;-65
2021/03/14 02:15:36;;;;;;;1.20;0.83;;;22.40;49.30;;;;;;5036068;28;20900;-64
2021/03/14 02:18:04;;;;;;;1.10;0.80;;;22.40;49.30;;;;;;5035921;28;20978;-64
2021/03/14 02:20:31;;;;;;;1.00;0.70;;;22.40;49.30;;;;;;5036081;28;20791;-64
2021/03/14 02:23:06;;;;;;;1.53;0.70;;;22.40;49.30;;;;;;5036003;28;20421;-65
2021/03/14 02:25:37;;;;;;;1.33;1.00;;;22.40;49.30;;;;;;5035953;28;20401;-65
2021/03/14 02:28:04;;;;;;;2.10;0.80;;;22.40;49.30;;;;;;5036011;28;20545;-64
2021/03/14 02:30:31;;;;;;;2.53;1.00;;;22.40;49.30;;;;;;5036051;28;20438;-65
2021/03/14 02:32:57;;;;;;;1.80;0.87;;;22.40;49.30;;;;;;5035803;28;20407;-65
2021/03/14 02:35:24;;;;;;;1.10;0.80;;;22.40;49.30;;;;;;5035769;28;20776;-65
2021/03/14 02:37:51;;;;;;;1.50;0.80;;;22.40;49.30;;;;;;5035653;28;20457;-64
2021/03/14 02:40:18;;;;;;;1.40;0.80;;;22.40;49.30;;;;;;5035616;28;20438;-65
2021/03/14 02:42:45;;;;;;;1.63;0.80;;;22.40;49.30;;;;;;5035459;28;20504;-64
2021/03/14 02:45:12;;;;;;;0.90;0.70;;;22.40;49.30;;;;;;5035075;28;20502;-65
2021/03/14 02:47:39;;;;;;;0.90;0.70;;;22.40;49.30;;;;;;5035732;28;20476;-65
2021/03/14 02:50:11;;;;;;;1.10;0.80;;;22.40;49.30;;;;;;5035370;28;20438;-64
2021/03/14 02:52:39;;;;;;;1.20;0.80;;;22.40;49.30;;;;;;5035729;28;20387;-65
2021/03/14 02:55:07;;;;;;;1.73;0.93;;;22.40;49.30;;;;;;5035387;28;20418;-64
2021/03/14 02:57:33;;;;;;;2.60;0.80;;;22.40;49.30;;;;;;5035280;28;20458;-65
2021/03/14 02:59:59;;;;;;;0.90;0.60;;;22.40;49.30;;;;;;5035248;28;20440;-65
2021/03/14 03:02:26;;;;;;;1.20;0.70;;;22.40;49.30;;;;;;5035515;28;20497;-65
2021/03/14 03:04:51;;;;;;;1.10;0.90;;;22.40;49.30;;;;;;5035191;28;20564;-65
2021/03/14 03:07:18;;;;;;;1.10;0.80;;;22.40;49.30;;;;;;5035269;28;20446;-65
2021/03/14 03:09:50;;;;;;;1.60;0.70;;;22.40;49.30;;;;;;5033915;28;20208;-65
2021/03/14 03:12:17;;;;;;;1.57;0.77;;;22.40;49.30;;;;;;5035368;28;20395;-65
2021/03/14 03:14:43;;;;;;;1.23;0.80;;;22.30;49.30;;;;;;5034975;28;20943;-65
2021/03/14 03:17:10;;;;;;;1.10;0.80;;;22.30;49.30;;;;;;5035023;28;20893;-65
2021/03/14 03:19:37;;;;;;;1.53;0.80;;;22.30;49.30;;;;;;5035183;28;20473;-65
2021/03/14 03:22:03;;;;;;;1.07;0.80;;;22.30;49.30;;;;;;5034870;28;20430;-65
2021/03/14 03:24:29;;;;;;;1.10;0.70;;;22.30;49.30;;;;;;5035120;28;20414;-64
2021/03/14 03:26:55;;;;;;;1.20;0.80;;;22.30;49.30;;;;;;5034803;28;20692;-64
2021/03/14 03:29:21;;;;;;;1.40;1.00;;;22.30;49.30;;;;;;5034547;28;20885;-65
2021/03/14 03:31:47;;;;;;;0.87;0.63;;;22.30;49.30;;;;;;5034696;28;20172;-64
2021/03/14 03:34:13;;;;;;;1.10;0.70;;;22.30;49.30;;;;;;5033346;28;20426;-65
2021/03/14 03:36:41;;;;;;;0.90;0.67;;;22.30;49.30;;;;;;5034574;28;20440;-64
2021/03/14 03:39:09;;;;;;;1.10;0.73;;;22.30;49.30;;;;;;5034448;28;20577;-65
2021/03/14 03:41:59;;;;;;;1.63;1.00;;;22.30;49.30;;;;;;5034690;28;20925;-65
2021/03/14 03:44:26;;;;;;;2.17;1.50;;;22.30;49.30;;;;;;5032731;28;20434;-65
2021/03/14 03:46:57;;;;;;;1.30;0.97;;;22.30;49.30;;;;;;5034608;28;20797;-63
2021/03/14 03:49:28;;;;;;;1.30;0.60;;;22.30;49.30;;;;;;5034316;28;20433;-65
2021/03/14 03:51:54;;;;;;;1.10;0.70;;;22.30;49.30;;;;;;5034620;28;20751;-65
2021/03/14 03:54:21;;;;;;;1.27;0.70;;;22.30;49.30;;;;;;5034373;28;20418;-65
2021/03/14 03:56:48;;;;;;;1.00;0.70;;;22.30;49.30;;;;;;5034459;28;20454;-65
2021/03/14 03:59:15;;;;;;;1.23;1.00;;;22.30;49.30;;;;;;5034165;28;20437;-65
2021/03/14 04:01:42;;;;;;;1.63;0.70;;;22.30;49.30;;;;;;5034124;28;20442;-65
2021/03/14 04:04:09;;;;;;;1.37;0.80;;;22.30;49.30;;;;;;5034028;28;20448;-65
2021/03/14 04:06:35;;;;;;;2.03;0.80;;;22.30;49.30;;;;;;5033963;28;20476;-65
2021/03/14 04:09:02;;;;;;;1.00;0.80;;;22.30;49.30;;;;;;5033901;28;20426;-64
2021/03/14 04:11:29;;;;;;;1.20;0.70;;;22.30;49.30;;;;;;5033969;28;20410;-65
2021/03/14 04:13:55;;;;;;;1.00;0.70;;;22.30;49.30;;;;;;5033824;28;20438;-65
2021/03/14 04:16:23;;;;;;;1.10;0.70;;;22.30;49.30;;;;;;5033832;28;20949;-64
2021/03/14 04:18:51;;;;;;;1.03;0.70;;;22.30;49.30;;;;;;5033766;28;20433;-65
2021/03/14 04:21:18;;;;;;;1.03;0.60;;;22.30;49.30;;;;;;5033693;28;20464;-65
2021/03/14 04:23:47;;;;;;;1.53;0.80;;;22.30;49.80;;;;;;5033971;28;20410;-64
2021/03/14 04:26:15;;;;;;;0.80;0.60;;;22.30;49.80;;;;;;5033598;28;20406;-64
2021/03/14 04:28:43;;;;;;;1.07;0.70;;;22.30;49.30;;;;;;5033490;28;21007;-65
2021/03/14 04:31:09;;;;;;;1.23;0.70;;;22.30;49.30;;;;;;5033594;28;20460;-65
2021/03/14 04:33:36;;;;;;;1.33;0.80;;;22.30;49.30;;;;;;5033552;28;20410;-65
2021/03/14 04:36:03;;;;;;;1.10;0.70;;;22.30;49.30;;;;;;5033433;28;20418;-64
2021/03/14 04:38:30;;;;;;;1.83;1.23;;;22.30;49.30;;;;;;5033639;28;20457;-64
2021/03/14 04:40:56;;;;;;;0.90;0.70;;;22.30;49.30;;;;;;5033332;28;20501;-64
2021/03/14 04:43:24;;;;;;;0.90;0.60;;;22.30;49.30;;;;;;5033364;28;20414;-65
2021/03/14 04:45:51;;;;;;;2.10;0.90;;;22.20;49.20;;;;;;5033416;28;20438;-64
2021/03/14 04:48:18;;;;;;;1.80;1.00;;;22.20;49.20;;;;;;5033263;28;20485;-65
2021/03/14 04:50:44;;;;;;;3.53;0.70;;;22.20;49.30;;;;;;5033342;28;20410;-65
2021/03/14 04:53:11;;;;;;;1.10;0.70;;;22.20;49.20;;;;;;5033266;28;20407;-64
2021/03/14 04:55:39;;;;;;;1.20;0.80;;;22.20;49.30;;;;;;5033748;28;20909;-65
2021/03/14 04:58:07;;;;;;;1.00;0.70;;;22.20;49.30;;;;;;5033419;28;21012;-64
2021/03/14 05:00:34;;;;;;;1.03;0.70;;;22.20;49.30;;;;;;5033180;28;20425;-65
2021/03/14 05:03:01;;;;;;;0.93;0.60;;;22.20;49.30;;;;;;5033420;28;20967;-65
2021/03/14 05:05:27;;;;;;;0.90;0.53;;;22.20;49.40;;;;;;5031889;28;20464;-65
2021/03/14 05:07:53;;;;;;;1.70;0.77;;;22.10;49.30;;;;;;5032560;28;20519;-65
2021/03/14 05:10:22;;;;;;;2.73;0.80;;;22.20;49.40;;;;;;5033020;28;20483;-65
2021/03/14 05:12:49;;;;;;;1.00;0.70;;;22.20;49.40;;;;;;5033498;28;20403;-65
2021/03/14 05:15:16;;;;;;;1.07;0.73;;;22.10;49.40;;;;;;5033014;28;20423;-65
2021/03/14 05:17:44;;;;;;;1.07;0.70;;;22.10;49.40;;;;;;5032936;28;20520;-65
2021/03/14 05:20:13;;;;;;;1.20;0.73;;;22.10;49.40;;;;;;5032962;28;20433;-65
2021/03/14 05:22:40;;;;;;;1.00;0.80;;;22.10;49.40;;;;;;5032927;28;20457;-65
2021/03/14 05:25:07;;;;;;;1.10;0.80;;;22.10;49.40;;;;;;5033151;28;20414;-65
2021/03/14 05:27:35;;;;;;;1.37;0.60;;;22.10;49.40;;;;;;5032857;28;20541;-65
2021/03/14 05:30:01;;;;;;;1.00;0.70;;;22.10;49.40;;;;;;5032741;28;20524;-65
2021/03/14 05:32:27;;;;;;;1.47;0.70;;;22.10;49.40;;;;;;5032939;28;20854;-65
2021/03/14 05:34:56;;;;;;;1.00;0.70;;;22.10;49.40;;;;;;5032796;28;20505;-65
2021/03/14 05:37:21;;;;;;;0.90;0.63;;;22.10;49.40;;;;;;5032705;28;20671;-65
2021/03/14 05:39:47;;;;;;;1.40;0.70;;;22.10;49.40;;;;;;5032974;28;20461;-65
2021/03/14 05:42:14;;;;;;;0.97;0.60;;;22.10;49.40;;;;;;5032683;28;20697;-65
2021/03/14 05:44:40;;;;;;;0.87;0.63;;;22.10;49.40;;;;;;5032736;28;20176;-65
2021/03/14 05:47:07;;;;;;;0.90;0.70;;;22.10;49.30;;;;;;5032641;28;20461;-65
2021/03/14 05:49:33;;;;;;;1.37;0.87;;;22.20;49.40;;;;;;5032627;28;20426;-65
2021/03/14 05:52:00;;;;;;;1.20;0.70;;;22.20;49.30;;;;;;5032686;28;20932;-65
2021/03/14 05:54:27;;;;;;;2.13;0.80;;;22.20;49.30;;;;;;5032645;28;20169;-65
2021/03/14 05:56:53;;;;;;;1.10;0.70;;;22.20;49.20;;;;;;5032622;28;20421;-63
2021/03/14 05:59:19;;;;;;;1.20;0.70;;;22.20;49.20;;;;;;5032702;28;20430;-65
2021/03/14 06:01:50;;;;;;;1.30;0.77;;;22.20;49.20;;;;;;5032822;28;20784;-65
2021/03/14 06:04:17;;;;;;;0.80;0.63;;;22.20;49.20;;;;;;5032666;28;20668;-65
2021/03/14 06:06:44;;;;;;;0.90;0.63;;;22.20;49.20;;;;;;5032444;28;20456;-65
2021/03/14 06:09:11;;;;;;;1.30;0.70;;;22.30;49.20;;;;;;5032456;28;21040;-65
2021/03/14 06:11:37;;;;;;;1.00;0.60;;;22.30;49.30;;;;;;5032474;28;20774;-65
2021/03/14 06:14:03;;;;;;;0.80;0.67;;;22.30;49.20;;;;;;5032435;28;20418;-65
2021/03/14 06:16:29;;;;;;;1.00;0.70;;;22.30;49.20;;;;;;5032527;28;20243;-65
2021/03/14 06:18:55;;;;;;;1.00;0.80;;;22.30;49.20;;;;;;5033320;28;20484;-65
2021/03/14 06:21:22;;;;;;;1.00;0.60;;;22.30;49.20;;;;;;5035981;28;20772;-65
2021/03/14 06:23:59;;;;;;;0.83;0.63;;;22.30;49.10;;;;;;5036006;28;20905;-65
2021/03/14 06:26:47;;;;;;;1.30;0.70;;;22.30;49.10;;;;;;5036032;28;20416;-65
2021/03/14 06:29:18;;;;;;;1.00;0.77;;;22.30;49.10;;;;;;5035834;28;20453;-65
2021/03/14 06:32:05;;;;;;;0.90;0.60;;;22.40;49.20;;;;;;5035832;28;20406;-64
2021/03/14 06:34:34;;;;;;;2.00;0.60;;;22.30;49.10;;;;;;5034556;28;20902;-65
2021/03/14 06:37:12;;;;;;;1.20;0.80;;;22.30;49.10;;;;;;5035738;28;20426;-65
2021/03/14 06:39:40;;;;;;;0.87;0.60;;;22.30;49.10;;;;;;5035724;28;20486;-65
2021/03/14 06:42:06;;;;;;;1.20;0.80;;;22.30;49.10;;;;;;5035653;28;20445;-65
2021/03/14 06:44:36;;;;;;;1.57;0.73;;;22.40;49.20;;;;;;5035604;28;20411;-65
2021/03/14 06:47:07;;;;;;;1.33;0.70;;;22.40;49.20;;;;;;5035692;28;20565;-65
2021/03/14 06:49:38;;;;;;;0.90;0.67;;;22.40;49.20;;;;;;5035438;28;20426;-65
2021/03/14 06:52:04;;;;;;;1.00;0.63;;;22.40;49.10;;;;;;5035469;28;20419;-65
2021/03/14 06:54:36;;;;;;;0.97;0.73;;;22.30;49.00;;;;;;5034088;28;20414;-65
2021/03/14 06:57:17;;;;;;;0.80;0.60;;;22.40;49.10;;;;;;5035365;28;20456;-66
2021/03/14 06:59:46;;;;;;;0.80;0.60;;;22.40;49.10;;;;;;5034011;28;20496;-65
2021/03/14 07:02:13;;;;;;;2.60;0.90;;;22.40;49.20;;;;;;5035249;28;20789;-65
2021/03/14 07:04:55;;;;;;;1.00;0.60;;;22.40;49.10;;;;;;5035219;28;20445;-65
2021/03/14 07:07:31;;;;;;;1.30;0.80;;;22.40;49.20;;;;;;5035121;28;20451;-65
2021/03/14 07:10:04;;;;;;;1.10;0.60;;;22.40;49.20;;;;;;5035116;28;20505;-66
2021/03/14 07:12:33;;;;;;;1.00;0.70;;;22.40;49.20;;;;;;5035097;28;20437;-65
2021/03/14 07:15:13;;;;;;;1.97;0.80;;;22.40;49.20;;;;;;5035041;28;20505;-66
2021/03/14 07:17:41;;;;;;;1.07;0.70;;;22.40;49.30;;;;;;5034080;28;20410;-66
2021/03/14 07:20:12;;;;;;;1.70;1.00;;;22.40;49.30;;;;;;5034884;28;20476;-66
2021/03/14 07:22:38;;;;;;;0.83;0.60;;;22.40;49.40;;;;;;5035348;28;20419;-66
2021/03/14 07:25:21;;;;;;;0.80;0.60;;;22.40;49.40;;;;;;5034856;28;20416;-66
2021/03/14 07:27:48;;;;;;;1.00;0.70;;;22.40;49.30;;;;;;5034694;28;20447;-66
2021/03/14 07:30:16;;;;;;;1.00;0.70;;;22.50;49.40;;;;;;5034278;28;20513;-66
2021/03/14 07:32:42;;;;;;;0.80;0.57;;;22.40;49.20;;;;;;5034707;28;20406;-66
2021/03/14 07:35:09;;;;;;;0.90;0.60;;;22.50;49.30;;;;;;5034956;28;20815;-66
2021/03/14 07:37:39;;;;;;;1.23;0.70;;;22.50;49.30;;;;;;5034563;28;20524;-66
2021/03/14 07:40:05;;;;;;;1.17;0.60;;;22.50;49.30;;;;;;5034447;28;20512;-66
2021/03/14 07:42:31;;;;;;;0.90;0.70;;;22.50;49.30;;;;;;5034506;28;20415;-66
2021/03/14 07:44:58;;;;;;;0.80;0.60;;;22.50;49.20;;;;;;5034456;28;20415;-66
2021/03/14 07:47:30;;;;;;;1.00;0.70;;;22.50;49.20;;;;;;5034532;28;20450;-66
2021/03/14 07:49:56;;;;;;;1.00;0.70;;;22.50;49.20;;;;;;5034392;28;20431;-65
2021/03/14 07:52:28;;;;;;;1.10;0.70;;;22.50;49.20;;;;;;5033028;28;20516;-66
2021/03/14 07:55:03;;;;;;;1.10;0.70;;;22.60;49.30;;;;;;5034540;28;20501;-66
2021/03/14 07:57:30;;;;;;;1.10;0.60;;;22.50;49.20;;;;;;5034252;28;20413;-66
2021/03/14 07:59:56;;;;;;;0.90;0.60;;;22.50;49.20;;;;;;5034278;28;20521;-66
2021/03/14 08:02:21;;;;;;;2.10;0.70;;;22.50;49.10;;;;;;5034084;28;20505;-65
2021/03/14 08:04:51;;;;;;;0.90;0.70;;;22.50;49.20;;;;;;5034111;28;20418;-66
2021/03/14 08:07:37;;;;;;;1.00;0.77;;;22.50;49.10;;;;;;5033889;28;20195;-66
2021/03/14 08:10:08;;;;;;;1.07;0.73;;;22.50;49.10;;;;;;5026539;28;20466;-65
2021/03/14 08:12:41;;;;;;;0.80;0.60;;;22.50;49.10;;;;;;5034014;28;20959;-66
2021/03/14 08:15:26;;;;;;;0.93;0.60;;;22.50;49.10;;;;;;5033908;28;20406;-66
2021/03/14 08:17:55;;;;;;;1.33;0.73;;;22.50;49.10;;;;;;5033829;28;20429;-65
2021/03/14 08:20:40;;;;;;;0.90;0.60;;;22.50;49.10;;;;;;5033719;28;20454;-66
2021/03/14 08:23:11;;;;;;;1.00;0.70;;;22.50;49.10;;;;;;5032581;28;20804;-66
2021/03/14 08:25:39;;;;;;;2.80;0.70;;;22.50;49.10;;;;;;5033749;28;20398;-65
2021/03/14 08:28:22;;;;;;;0.90;0.60;;;22.50;49.10;;;;;;5033538;28;20457;-65
2021/03/14 08:30:51;;;;;;;0.80;0.60;;;22.50;49.10;;;;;;5033930;28;20402;-65
2021/03/14 08:33:17;;;;;;;1.30;0.73;;;22.50;49.10;;;;;;5032282;28;20414;-65
2021/03/14 08:35:44;;;;;;;0.90;0.60;;;22.50;49.10;;;;;;5033522;28;20510;-66
2021/03/14 08:38:29;;;;;;;1.20;0.80;;;22.50;49.10;;;;;;5033374;28;20184;-65
2021/03/14 08:41:27;;;;;;;2.90;0.87;;;22.50;49.10;;;;;;5033092;28;20402;-66
2021/03/14 08:44:05;;;;;;;1.10;0.70;;;22.50;49.10;;;;;;5033469;28;20774;-65
2021/03/14 08:46:46;;;;;;;1.03;0.70;;;22.50;49.20;;;;;;5033350;28;20493;-66
2021/03/14 08:49:17;;;;;;;0.80;0.50;;;22.50;49.20;;;;;;5033363;28;20429;-66
2021/03/14 08:51:43;;;;;;;1.20;0.73;;;22.50;49.20;;;;;;5033296;28;20839;-66
2021/03/14 08:54:10;;;;;;;1.20;0.60;;;22.50;49.20;;;;;;5033257;28;20434;-66
2021/03/14 08:56:36;;;;;;;0.90;0.70;;;22.50;49.20;;;;;;5031917;28;20406;-65
2021/03/14 08:59:13;;;;;;;0.90;0.60;;;22.50;49.20;;;;;;5033158;28;20462;-66
2021/03/14 09:01:39;;;;;;;1.00;0.80;;;22.50;49.20;;;;;;5033672;28;20399;-66
2021/03/14 09:04:15;;;;;;;1.00;0.70;;;22.50;49.10;;;;;;5033128;28;20409;-66
2021/03/14 09:06:42;;;;;;;0.87;0.63;;;22.60;49.20;;;;;;5032974;28;20414;-66
2021/03/14 09:09:10;;;;;;;2.63;0.80;;;22.50;49.10;;;;;;5033003;28;20453;-66
2021/03/14 09:11:37;;;;;;;1.97;0.90;;;22.60;49.20;;;;;;5033038;28;20429;-66
2021/03/14 09:14:31;;;;;;;1.87;0.90;;;22.60;49.20;;;;;;5031724;28;20414;-66
2021/03/14 09:16:59;;;;;;;2.37;0.60;;;22.60;49.20;;;;;;5033022;28;20777;-65
2021/03/14 09:19:28;;;;;;;0.80;0.60;;;22.60;49.30;;;;;;5032864;28;20427;-65
2021/03/14 09:22:14;;;;;;;1.30;0.90;;;22.60;49.20;;;;;;5032862;28;20445;-65
2021/03/14 09:24:51;;;;;;;0.90;0.70;;;22.60;49.20;;;;;;5032587;28;20465;-66
2021/03/14 09:27:36;;;;;;;1.87;0.70;;;22.60;49.20;;;;;;5032890;28;20967;-65
2021/03/14 09:30:08;;;;;;;1.47;0.87;;;22.60;49.20;;;;;;5033295;28;20440;-66
2021/03/14 09:32:38;;;;;;;0.90;0.73;;;22.60;49.20;;;;;;5033015;28;20407;-66
2021/03/14 09:35:31;;;;;;;1.03;0.73;;;22.60;49.80;;;;;;5032900;28;20493;-66
2021/03/14 09:38:00;;;;;;;1.20;0.63;;;22.60;49.20;;;;;;5031141;28;20545;-66
2021/03/14 09:40:28;;;;;;;1.47;0.80;;;22.60;49.30;;;;;;5032659;28;20835;-66
2021/03/14 09:43:07;;;;;;;3.07;0.80;;;22.60;49.80;;;;;;5033051;28;20456;-66
2021/03/14 09:45:33;;;;;;;2.23;0.73;;;22.60;49.20;;;;;;5032816;28;20398;-65
2021/03/14 09:48:05;;;;;;;1.00;0.60;;;22.60;49.20;;;;;;5032635;28;20541;-66
2021/03/14 09:50:35;;;;;;;1.67;0.73;;;22.60;49.20;;;;;;5032690;28;20168;-66
2021/03/14 09:53:02;;;;;;;1.80;0.60;;;22.60;49.20;;;;;;5033850;28;20414;-65
2021/03/14 09:55:32;;;;;;;1.20;0.70;;;22.60;49.30;;;;;;5035163;28;20415;-66
2021/03/14 09:58:02;;;;;;;1.30;0.80;;;22.60;49.30;;;;;;5036638;28;20908;-66
2021/03/14 10:00:32;;;;;;;2.40;0.80;;;22.60;49.30;;;;;;5036335;28;20468;-65
2021/03/14 10:03:03;;;;;;;1.47;0.80;;;22.60;49.30;;;;;;5036622;28;20892;-65
2021/03/14 10:05:43;;;;;;;1.23;0.70;;;22.70;49.30;;;;;;5035078;28;20410;-65
2021/03/14 10:08:10;;;;;;;2.30;1.07;;;22.70;49.20;;;;;;5036123;28;20449;-65
2021/03/14 10:10:38;;;;;;;2.60;0.87;;;22.70;49.20;;;;;;5036632;28;20415;-65
2021/03/14 10:13:08;;;;;;;2.13;1.27;;;22.70;49.20;;;;;;5034878;28;20416;-65
2021/03/14 10:15:35;;;;;;;1.10;0.80;;;22.70;49.10;;;;;;5036627;28;20441;-66
2021/03/14 10:18:02;;;;;;;2.90;0.90;;;22.70;49.10;;;;;;5035993;28;20432;-65
2021/03/14 10:20:27;;;;;;;1.33;0.70;;;22.80;49.20;;;;;;5035999;28;20440;-66
2021/03/14 10:23:02;;;;;;;2.63;1.00;;;22.80;49.20;;;;;;5036009;28;20410;-65
2021/03/14 10:25:30;;;;;;;1.60;1.30;;;22.80;49.30;;;;;;5034669;28;20182;-65
2021/03/14 10:28:17;;;;;;;1.80;0.80;;;22.80;49.30;;;;;;5034544;28;20450;-66
2021/03/14 10:30:44;;;;;;;1.50;0.90;;;22.80;49.20;;;;;;5036150;28;20409;-65
2021/03/14 10:33:11;;;;;;;1.20;0.90;;;22.80;49.20;;;;;;5035974;28;20402;-65
2021/03/14 10:35:39;;;;;;;1.40;0.90;;;22.80;49.20;;;;;;5034551;28;20421;-64
2021/03/14 10:38:15;;;;;;;2.40;0.90;;;22.80;49.10;;;;;;5034431;28;20438;-63
2021/03/14 10:40:41;;;;;;;1.40;0.80;;;22.80;49.10;;;;;;5035699;28;20446;-65
2021/03/14 10:43:20;;;;;;;4.20;1.30;;;22.80;49.10;;;;;;5035824;28;20492;-66
2021/03/14 10:45:47;;;;;;;7.17;1.23;;;22.80;49.00;;;;;;5035504;28;20206;-66
2021/03/14 10:48:13;;;;;;;4.70;1.30;;;22.80;49.00;;;;;;5035400;28;20453;-65
2021/03/14 10:50:39;;;;;;;3.20;1.23;;;22.80;49.00;;;;;;5035726;28;20410;-65
2021/03/14 10:53:07;;;;;;;3.17;1.27;;;22.70;49.20;;;;;;5035493;28;20167;-65
2021/03/14 10:55:34;;;;;;;6.63;1.37;;;22.80;49.00;;;;;;5035370;28;20469;-65
2021/03/14 10:58:13;;;;;;;2.33;1.07;;;22.70;48.90;;;;;;5035492;28;20413;-65
2021/03/14 11:00:42;;;;;;;2.33;1.17;;;22.80;49.00;;;;;;5035654;28;20391;-65
2021/03/14 11:03:21;;;;;;;2.60;1.03;;;22.80;49.00;;;;;;5035181;28;20478;-65
2021/03/14 11:05:47;;;;;;;2.87;1.00;;;22.80;48.90;;;;;;5034514;28;20481;-65
2021/03/14 11:08:12;;;;;;;2.03;0.90;;;22.80;48.90;;;;;;5035011;28;20581;-66
2021/03/14 11:10:38;;;;;;;2.40;1.00;;;22.80;48.90;;;;;;5035335;28;20172;-65
2021/03/14 11:13:31;;;;;;;1.83;0.90;;;22.80;48.90;;;;;;5035321;28;20247;-65
2021/03/14 11:16:09;;;;;;;2.13;1.33;;;22.80;48.90;;;;;;5033630;28;20187;-65
2021/03/14 11:18:35;;;;;;;5.23;1.10;;;22.80;49.00;;;;;;5035202;28;20943;-65
2021/03/14 11:21:06;;;;;;;3.83;1.30;;;22.90;49.10;;;;;;5034962;28;20501;-65
2021/03/14 11:23:31;;;;;;;3.80;1.23;;;22.80;49.00;;;;;;5034909;28;20517;-66
2021/03/14 11:25:58;;;;;;;3.33;2.03;;;22.90;49.10;;;;;;5034805;28;20913;-66
2021/03/14 11:28:23;;;;;;;9.30;1.67;;;22.90;49.10;;;;;;5034600;28;20581;-66
2021/03/14 11:30:50;;;;;;;4.17;1.27;;;22.90;49.10;;;;;;5034577;28;20437;-65
2021/03/14 11:33:15;;;;;;;3.83;1.00;;;22.90;49.10;;;;;;5034163;28;20207;-66
2021/03/14 11:35:42;;;;;;;2.27;1.50;;;22.90;49.10;;;;;;5034454;28;20403;-65
2021/03/14 11:38:07;;;;;;;7.60;1.50;;;22.90;49.10;;;;;;5032785;28;20470;-66
2021/03/14 11:40:33;;;;;;;6.00;1.27;;;23.00;49.20;;;;;;5034370;28;20809;-66
2021/03/14 11:42:59;;;;;;;4.10;1.17;;;23.00;49.20;;;;;;5033019;28;20655;-66
2021/03/14 11:45:24;;;;;;;2.87;1.10;;;23.00;49.20;;;;;;5034344;28;20174;-65
2021/03/14 11:47:50;;;;;;;2.90;0.90;;;23.00;49.20;;;;;;5034151;28;20199;-66
2021/03/14 11:50:16;;;;;;;4.50;1.13;;;23.00;49.30;;;;;;5032986;28;20265;-66
2021/03/14 11:52:49;;;;;;;3.53;0.90;;;23.00;49.20;;;;;;5034279;28;20191;-66
2021/03/14 11:55:15;;;;;;;4.90;1.30;;;23.00;49.30;;;;;;5034695;28;20163;-66
2021/03/14 11:57:41;;;;;;;2.10;1.10;;;23.00;49.30;;;;;;5034019;28;20823;-66
2021/03/14 12:00:08;;;;;;;2.00;0.90;;;23.10;49.40;;;;;;5032762;28;20529;-66
2021/03/14 12:02:33;;;;;;;3.03;1.20;;;23.10;49.40;;;;;;5034276;28;20643;-66
2021/03/14 12:04:59;;;;;;;2.63;1.27;;;23.10;49.40;;;;;;5034052;28;20409;-65
2021/03/14 12:07:25;;;;;;;1.97;0.93;;;23.10;49.40;;;;;;5033953;28;20282;-65
2021/03/14 12:09:55;;;;;;;4.10;1.37;;;23.10;49.40;;;;;;5033964;28;20271;-65
2021/03/14 12:12:20;;;;;;;3.37;1.20;;;23.10;49.40;;;;;;5031564;28;20564;-66
2021/03/14 12:14:46;;;;;;;2.70;1.00;;;23.10;49.40;;;;;;5032671;28;20984;-65
2021/03/14 12:17:12;;;;;;;2.37;1.00;;;23.10;49.40;;;;;;5031569;28;20182;-66
2021/03/14 12:19:40;;;;;;;3.80;1.40;;;23.10;49.40;;;;;;5033795;28;20562;-66
2021/03/14 12:22:07;;;;;;;2.47;0.73;;;23.10;49.40;;;;;;5032482;28;20282;-66
2021/03/14 12:24:33;;;;;;;2.90;0.90;;;23.10;49.40;;;;;;5034013;28;20416;-65
2021/03/14 12:27:02;;;;;;;1.50;1.00;;;23.10;49.40;;;;;;5033558;28;20529;-66
2021/03/14 12:29:27;;;;;;;2.00;1.00;;;23.10;49.40;;;;;;5033662;28;20194;-66
2021/03/14 12:31:53;;;;;;;3.00;1.00;;;23.10;49.50;;;;;;5033776;28;20406;-64
2021/03/14 12:34:18;;;;;;;2.40;1.10;;;23.10;49.40;;;;;;5033676;28;20164;-66
2021/03/14 12:36:44;;;;;;;5.30;1.10;;;23.10;49.40;;;;;;5033484;28;20249;-65
2021/03/14 12:39:10;;;;;;;2.47;1.10;;;23.10;49.40;;;;;;5033525;28;20211;-67
2021/03/14 12:41:35;;;;;;;2.70;1.20;;;23.10;49.40;;;;;;5033633;28;20713;-66
2021/03/14 12:44:01;;;;;;;2.70;0.90;;;23.10;49.40;;;;;;5032131;28;20210;-67
2021/03/14 12:46:26;;;;;;;5.57;0.80;;;23.10;49.40;;;;;;5032332;28;20245;-67
2021/03/14 12:48:52;;;;;;;1.43;0.80;;;23.10;49.40;;;;;;5033205;28;20203;-67
2021/03/14 12:51:17;;;;;;;3.13;1.67;;;23.10;49.40;;;;;;5033363;28;20191;-67
2021/03/14 12:53:43;;;;;;;2.20;1.00;;;23.10;49.50;;;;;;5033393;28;20168;-67
2021/03/14 12:56:09;;;;;;;1.50;1.00;;;23.10;49.50;;;;;;5033004;28;20179;-67